Aviation Digital Data Service (ADDS)

Output produced by METARs form (2057 UTC 29 May 2017)
found at http://www.aviationweather.gov/adds/metars/
 
TAF MDST 291600Z 2918/3018 12012KT SCT025
       
TAF MDPP 291600Z 2918/3018 06010KT 9999 BKN020 
     PROB30 2922/3003 7000 ?RA BKN016 
     BECMG 3002/3004 00000KT
       
TAF MDLR 291600Z 2918/3018 14012KT 9999 SCT022 
     PROB30 2918/2923 8000 -TSRA FEW014CB BKN016 SCT070 
     BECMG 3001/3003 00000KT
       
TAF MDSD 291600Z 2918/3018 16010KT 9999 FEW020CB SCT022 
     PROB30 2921/3004 7000 -TSRA FEW018CB BKN018
       
TAF MDBH 291600Z 2918/3018 13015KT 9999 FEW022 SCT100 
     BECMG 3003/3005 00000KT
       
TAF MDPC 291600Z 2918/3018 07010KT 9999 SCT020 
     PROB30 2920/3002 8000-SHRA SCT016 SCT070